createdAt,value
2018-09-23T00:00:11.713Z,0.00
2018-09-23T00:01:11.894Z,0.00
2018-09-23T00:02:12.072Z,0.00
2018-09-23T00:03:12.246Z,0.00
2018-09-23T00:04:12.418Z,0.00
2018-09-23T00:05:12.591Z,0.00
2018-09-23T00:06:12.782Z,0.00
2018-09-23T00:07:12.953Z,0.00
2018-09-23T00:08:13.134Z,0.00
2018-09-23T00:09:13.303Z,0.00
2018-09-23T00:10:13.476Z,0.00
2018-09-23T00:11:13.649Z,0.00
2018-09-23T00:12:13.825Z,0.00
2018-09-23T00:13:13.996Z,0.00
2018-09-23T00:14:14.171Z,0.00
2018-09-23T00:15:14.343Z,0.00
2018-09-23T00:16:14.508Z,0.00
2018-09-23T00:17:14.687Z,0.00
2018-09-23T00:18:14.863Z,0.00
2018-09-23T00:19:15.044Z,0.00
2018-09-23T00:20:15.213Z,0.00
2018-09-23T00:21:15.388Z,0.00
2018-09-23T00:22:15.582Z,0.00
2018-09-23T00:23:15.736Z,0.00
2018-09-23T00:24:15.919Z,0.00
2018-09-23T00:25:16.089Z,0.00
2018-09-23T00:26:16.268Z,0.00
2018-09-23T00:27:16.439Z,0.00
2018-09-23T00:28:16.617Z,0.00
2018-09-23T00:29:16.789Z,0.00
2018-09-23T00:30:16.955Z,0.00
2018-09-23T00:31:17.128Z,0.00
2018-09-23T00:32:17.295Z,0.00
2018-09-23T00:33:17.481Z,0.00
2018-09-23T00:34:17.644Z,0.00
2018-09-23T00:35:17.819Z,0.00
2018-09-23T00:36:17.992Z,0.00
2018-09-23T00:37:18.165Z,0.00
2018-09-23T00:38:18.341Z,0.00
2018-09-23T00:39:18.544Z,0.00
2018-09-23T00:40:18.693Z,0.00
2018-09-23T00:41:18.865Z,0.00
2018-09-23T00:42:19.036Z,0.00
2018-09-23T00:43:19.212Z,0.00
2018-09-23T00:44:19.388Z,0.00
2018-09-23T00:45:19.562Z,0.00
2018-09-23T00:46:19.734Z,0.00
2018-09-23T00:47:19.908Z,0.00
2018-09-23T00:48:20.082Z,0.00
2018-09-23T00:49:20.258Z,0.00
2018-09-23T00:50:20.433Z,0.00
2018-09-23T00:51:20.612Z,0.00
2018-09-23T00:52:22.543Z,0.00
2018-09-23T00:53:20.966Z,0.00
2018-09-23T00:54:21.150Z,0.00
2018-09-23T00:55:21.322Z,0.00
2018-09-23T00:56:21.512Z,0.00
2018-09-23T00:57:21.683Z,0.00
2018-09-23T00:58:21.854Z,0.00
2018-09-23T00:59:22.025Z,0.00
2018-09-23T01:00:22.191Z,0.00
2018-09-23T01:01:22.372Z,0.00
2018-09-23T01:02:22.551Z,0.00
2018-09-23T01:03:22.728Z,0.00
2018-09-23T01:04:22.903Z,0.00
2018-09-23T01:05:23.069Z,0.00
2018-09-23T01:06:23.244Z,0.00
2018-09-23T01:07:23.411Z,0.00
2018-09-23T01:08:23.588Z,0.00
2018-09-23T01:09:23.753Z,0.00
2018-09-23T01:10:23.932Z,0.00
2018-09-23T01:11:24.100Z,0.00
2018-09-23T01:12:24.273Z,0.00
2018-09-23T01:13:24.449Z,0.00
2018-09-23T01:14:24.635Z,0.00
2018-09-23T01:15:24.817Z,0.00
2018-09-23T01:16:24.990Z,0.00
2018-09-23T01:17:25.160Z,0.00
2018-09-23T01:18:25.329Z,0.00
2018-09-23T01:19:25.503Z,0.00
2018-09-23T01:20:25.673Z,0.00
2018-09-23T01:21:25.846Z,0.00
2018-09-23T01:22:26.025Z,0.00
2018-09-23T01:23:26.203Z,0.00
2018-09-23T01:24:26.416Z,0.00
2018-09-23T01:25:26.551Z,0.00
2018-09-23T01:26:26.732Z,0.00
2018-09-23T01:27:26.942Z,0.00
2018-09-23T01:28:27.120Z,0.00
2018-09-23T01:29:27.291Z,0.00
2018-09-23T01:30:27.457Z,0.00
2018-09-23T01:31:27.632Z,0.00
2018-09-23T01:32:27.805Z,0.00
2018-09-23T01:33:27.986Z,0.00
2018-09-23T01:34:28.158Z,0.00
2018-09-23T01:35:28.330Z,0.00
2018-09-23T01:36:28.504Z,0.00
2018-09-23T01:37:28.682Z,0.00
2018-09-23T01:38:28.862Z,0.00
2018-09-23T01:39:29.033Z,0.00
2018-09-23T01:40:29.215Z,0.00
2018-09-23T01:41:29.388Z,0.00
2018-09-23T01:42:29.561Z,0.00
2018-09-23T01:43:29.734Z,0.00
2018-09-23T01:44:29.903Z,0.00
2018-09-23T01:45:30.075Z,0.00
2018-09-23T01:46:30.242Z,0.00
2018-09-23T01:47:30.420Z,0.00
2018-09-23T01:48:30.590Z,0.00
2018-09-23T01:49:30.769Z,0.00
2018-09-23T01:50:30.945Z,0.00
2018-09-23T01:51:31.123Z,0.00
2018-09-23T01:52:31.303Z,0.00
2018-09-23T01:53:31.470Z,0.00
2018-09-23T01:54:31.641Z,0.00
2018-09-23T01:55:31.807Z,0.00
2018-09-23T01:56:31.988Z,0.00
2018-09-23T01:57:32.165Z,0.00
2018-09-23T01:58:32.344Z,0.00
2018-09-23T01:59:32.523Z,0.00
2018-09-23T02:00:32.734Z,0.00
2018-09-23T02:01:32.875Z,0.00
2018-09-23T02:02:33.049Z,0.00
2018-09-23T02:03:33.222Z,0.00
2018-09-23T02:04:33.399Z,0.00
2018-09-23T02:05:33.575Z,0.00
2018-09-23T02:06:33.749Z,0.00
2018-09-23T02:07:33.920Z,0.00
2018-09-23T02:08:34.098Z,0.00
2018-09-23T02:09:34.273Z,0.00
2018-09-23T02:10:34.457Z,0.00
2018-09-23T02:11:34.626Z,0.00
2018-09-23T02:12:34.797Z,0.00
2018-09-23T02:13:34.966Z,0.00
2018-09-23T02:14:35.145Z,0.00
2018-09-23T02:15:35.313Z,0.00
2018-09-23T02:16:35.485Z,0.00
2018-09-23T02:17:35.661Z,0.00
2018-09-23T02:18:35.830Z,0.00
2018-09-23T02:19:36.009Z,0.00
2018-09-23T02:20:36.194Z,0.00
2018-09-23T02:21:36.359Z,0.00
2018-09-23T02:22:36.537Z,0.00
2018-09-23T02:23:36.716Z,0.00
2018-09-23T02:24:36.885Z,0.00
2018-09-23T02:25:37.060Z,0.00
2018-09-23T02:26:37.237Z,0.00
2018-09-23T02:27:37.403Z,0.00
2018-09-23T02:28:37.591Z,0.00
2018-09-23T02:29:37.762Z,0.00
2018-09-23T02:30:37.937Z,0.00
2018-09-23T02:31:38.112Z,0.00
2018-09-23T02:32:38.286Z,0.00
2018-09-23T02:33:38.462Z,0.00
2018-09-23T02:34:38.634Z,0.00
2018-09-23T02:35:38.811Z,0.00
2018-09-23T02:36:38.986Z,0.00
2018-09-23T02:37:39.164Z,0.00
2018-09-23T02:38:39.332Z,0.00
2018-09-23T02:39:39.504Z,0.00
2018-09-23T02:40:39.678Z,0.00
2018-09-23T02:41:39.853Z,0.00
2018-09-23T02:42:40.027Z,0.00
2018-09-23T02:43:40.200Z,0.00
2018-09-23T02:44:40.381Z,0.00
2018-09-23T02:45:40.559Z,0.00
2018-09-23T02:46:40.728Z,0.00
2018-09-23T02:47:40.903Z,0.00
2018-09-23T02:48:41.072Z,0.00
2018-09-23T02:49:41.250Z,0.00
2018-09-23T02:50:41.425Z,0.00
2018-09-23T02:51:41.599Z,0.00
2018-09-23T02:52:41.779Z,0.00
2018-09-23T02:53:41.948Z,0.00
2018-09-23T02:54:42.127Z,0.00
2018-09-23T02:55:42.296Z,0.00
2018-09-23T02:56:42.477Z,0.00
2018-09-23T02:57:42.645Z,0.00
2018-09-23T02:58:42.834Z,0.00
2018-09-23T02:59:43.003Z,0.00
2018-09-23T03:00:43.175Z,0.00
2018-09-23T03:01:43.354Z,0.00
2018-09-23T03:02:43.529Z,0.00
2018-09-23T03:03:43.708Z,0.00
2018-09-23T03:04:43.887Z,0.00
2018-09-23T03:05:44.059Z,0.00
2018-09-23T03:06:44.231Z,0.00
2018-09-23T03:07:44.407Z,0.00
2018-09-23T03:08:44.590Z,0.00
2018-09-23T03:09:44.752Z,0.00
2018-09-23T03:10:44.928Z,0.00
2018-09-23T03:11:45.092Z,0.00
2018-09-23T03:12:45.265Z,0.00
2018-09-23T03:13:45.435Z,0.00
2018-09-23T03:14:45.610Z,0.00
2018-09-23T03:15:45.797Z,0.00
2018-09-23T03:16:45.962Z,0.00
2018-09-23T03:17:46.133Z,0.00
2018-09-23T03:18:46.313Z,0.00
2018-09-23T03:19:46.518Z,0.00
2018-09-23T03:20:46.691Z,0.00
2018-09-23T03:21:46.862Z,0.00
2018-09-23T03:22:47.039Z,0.00
2018-09-23T03:23:47.206Z,0.00
2018-09-23T03:24:47.376Z,0.00
2018-09-23T03:25:47.555Z,0.00
2018-09-23T03:26:47.724Z,0.00
2018-09-23T03:27:47.898Z,0.00
2018-09-23T03:28:48.088Z,0.00
2018-09-23T03:29:48.246Z,0.00
2018-09-23T03:30:48.438Z,0.00
2018-09-23T03:31:48.611Z,0.00
2018-09-23T03:32:48.773Z,0.00
2018-09-23T03:33:48.950Z,0.00
2018-09-23T03:34:49.124Z,0.00
2018-09-23T03:35:49.298Z,0.00
2018-09-23T03:36:49.464Z,0.00
2018-09-23T03:37:49.642Z,0.00
2018-09-23T03:38:49.821Z,0.00
2018-09-23T03:39:49.990Z,0.00
2018-09-23T03:40:50.169Z,0.00
2018-09-23T03:41:50.342Z,0.00
2018-09-23T03:42:50.517Z,0.00
2018-09-23T03:43:50.697Z,0.00
2018-09-23T03:44:50.880Z,0.00
2018-09-23T03:45:51.055Z,0.00
2018-09-23T03:46:51.228Z,0.00
2018-09-23T03:47:51.401Z,0.00
2018-09-23T03:48:51.614Z,0.00
2018-09-23T03:49:51.748Z,0.00
2018-09-23T03:50:51.916Z,0.00
2018-09-23T03:51:52.094Z,0.00
2018-09-23T03:52:52.274Z,0.00
2018-09-23T03:53:52.453Z,0.00
2018-09-23T03:54:52.659Z,0.00
2018-09-23T03:55:52.799Z,0.00
2018-09-23T03:56:52.979Z,0.00
2018-09-23T03:57:53.150Z,0.00
2018-09-23T03:58:53.322Z,0.00
2018-09-23T03:59:53.482Z,0.00
2018-09-23T04:00:53.664Z,0.00
2018-09-23T04:01:53.834Z,0.00
2018-09-23T04:02:54.000Z,0.00
2018-09-23T04:03:54.171Z,0.00
2018-09-23T04:04:54.348Z,0.00
2018-09-23T04:05:54.525Z,0.00
2018-09-23T04:06:54.698Z,0.00
2018-09-23T04:07:54.892Z,0.00
2018-09-23T04:08:55.072Z,0.00
2018-09-23T04:09:55.247Z,0.00
2018-09-23T04:10:55.426Z,0.00
2018-09-23T04:11:55.605Z,0.00
2018-09-23T04:12:55.775Z,0.00
2018-09-23T04:13:55.943Z,0.00
2018-09-23T04:14:56.148Z,0.00
2018-09-23T04:15:56.333Z,0.00
2018-09-23T04:16:56.509Z,0.00
2018-09-23T04:17:56.733Z,0.00
2018-09-23T04:18:56.789Z,0.00
2018-09-23T04:19:56.964Z,0.00
2018-09-23T04:20:57.153Z,0.00
2018-09-23T04:21:57.328Z,0.00
2018-09-23T04:22:57.502Z,0.00
2018-09-23T04:23:57.688Z,0.00
2018-09-23T04:24:57.861Z,0.00
2018-09-23T04:25:58.030Z,0.00
2018-09-23T04:26:58.216Z,0.00
2018-09-23T04:27:58.389Z,0.00
2018-09-23T04:28:58.567Z,0.00
2018-09-23T04:29:58.740Z,0.00
2018-09-23T04:30:58.911Z,0.00
2018-09-23T04:31:59.089Z,0.00
2018-09-23T04:32:59.274Z,0.00
2018-09-23T04:33:59.445Z,0.00
2018-09-23T04:34:59.620Z,0.00
2018-09-23T04:35:59.793Z,0.00
2018-09-23T04:36:59.964Z,0.00
2018-09-23T04:38:00.146Z,0.00
2018-09-23T04:39:00.325Z,0.00
2018-09-23T04:40:00.496Z,0.00
2018-09-23T04:41:00.679Z,0.00
2018-09-23T04:42:00.858Z,0.00
2018-09-23T04:43:01.040Z,0.00
2018-09-23T04:44:01.207Z,0.00
2018-09-23T04:45:01.416Z,0.00
2018-09-23T04:46:01.575Z,0.00
2018-09-23T04:47:01.744Z,0.00
2018-09-23T04:48:01.922Z,4.00
2018-09-23T04:49:02.087Z,4.00
2018-09-23T04:50:02.262Z,4.00
2018-09-23T04:51:02.452Z,0.00
2018-09-23T04:52:02.628Z,4.00
2018-09-23T04:53:02.803Z,4.00
2018-09-23T04:54:02.977Z,4.00
2018-09-23T04:55:03.159Z,8.00
2018-09-23T04:56:03.335Z,4.00
2018-09-23T04:57:03.510Z,8.00
2018-09-23T04:58:03.686Z,8.00
2018-09-23T04:59:03.854Z,8.00
2018-09-23T05:00:04.033Z,12.00
2018-09-23T05:01:04.207Z,16.00
2018-09-23T05:02:04.429Z,12.00
2018-09-23T05:03:04.583Z,12.00
2018-09-23T05:04:04.784Z,12.00
2018-09-23T05:05:04.954Z,16.00
2018-09-23T05:06:05.123Z,16.00
2018-09-23T05:07:05.302Z,16.00
2018-09-23T05:08:05.479Z,16.00
2018-09-23T05:09:05.674Z,20.00
2018-09-23T05:10:05.838Z,24.00
2018-09-23T05:11:06.032Z,28.00
2018-09-23T05:12:06.248Z,24.00
2018-09-23T05:13:06.418Z,32.00
2018-09-23T05:14:09.669Z,36.00
2018-09-23T05:15:08.532Z,36.00
2018-09-23T05:16:08.190Z,40.00
2018-09-23T05:17:09.262Z,40.00
2018-09-23T05:18:08.524Z,40.00
2018-09-23T05:19:08.398Z,48.00
2018-09-23T05:20:07.482Z,48.00
2018-09-23T05:21:07.542Z,48.00
2018-09-23T05:22:08.179Z,52.00
2018-09-23T05:23:07.914Z,56.00
2018-09-23T05:24:08.082Z,56.00
2018-09-23T05:25:08.245Z,60.00
2018-09-23T05:26:08.420Z,60.00
2018-09-23T05:27:08.593Z,64.00
2018-09-23T05:28:08.769Z,64.00
2018-09-23T05:29:08.954Z,68.00
2018-09-23T05:30:09.128Z,72.00
2018-09-23T05:31:09.350Z,72.00
2018-09-23T05:32:09.519Z,76.00
2018-09-23T05:33:09.694Z,96.00
2018-09-23T05:34:09.879Z,124.00
2018-09-23T05:35:10.055Z,124.00
2018-09-23T05:36:10.391Z,128.00
2018-09-23T05:37:10.423Z,128.00
2018-09-23T05:38:10.600Z,136.00
2018-09-23T05:39:10.786Z,132.00
2018-09-23T05:40:10.963Z,128.00
2018-09-23T05:41:11.235Z,136.00
2018-09-23T05:42:11.288Z,136.00
2018-09-23T05:43:14.351Z,120.00
2018-09-23T05:44:11.674Z,116.00
2018-09-23T05:45:11.723Z,100.00
2018-09-23T05:46:11.919Z,112.00
2018-09-23T05:47:12.084Z,104.00
2018-09-23T05:48:12.331Z,108.00
2018-09-23T05:49:13.131Z,120.00
2018-09-23T05:50:12.685Z,152.00
2018-09-23T05:51:12.945Z,152.00
2018-09-23T05:52:13.011Z,156.00
2018-09-23T05:53:13.263Z,152.00
2018-09-23T05:54:13.392Z,164.00
2018-09-23T05:55:13.553Z,200.00
2018-09-23T05:56:13.731Z,228.00
2018-09-23T05:57:13.917Z,240.00
2018-09-23T05:58:14.103Z,236.00
2018-09-23T05:59:14.287Z,228.00
2018-09-23T06:00:14.458Z,244.00
2018-09-23T06:01:14.650Z,248.00
2018-09-23T06:02:14.829Z,260.00
2018-09-23T06:03:15.078Z,280.00
2018-09-23T06:04:15.183Z,328.00
2018-09-23T06:05:15.370Z,384.00
2018-09-23T06:06:15.543Z,388.00
2018-09-23T06:07:15.730Z,368.00
2018-09-23T06:08:15.902Z,352.00
2018-09-23T06:09:16.080Z,356.00
2018-09-23T06:10:16.268Z,360.00
2018-09-23T06:11:16.477Z,336.00
2018-09-23T06:12:19.295Z,296.00
2018-09-23T06:13:16.869Z,312.00
2018-09-23T06:14:17.136Z,364.00
2018-09-23T06:15:17.251Z,424.00
2018-09-23T06:16:17.454Z,584.00
2018-09-23T06:17:18.731Z,708.00
2018-09-23T06:18:19.686Z,676.00
2018-09-23T06:19:17.683Z,684.00
2018-09-23T06:20:19.741Z,672.00
2018-09-23T06:21:18.637Z,688.00
2018-09-23T06:22:19.439Z,740.00
2018-09-23T06:23:20.325Z,752.00
2018-09-23T06:24:20.748Z,688.00
2018-09-23T06:25:19.999Z,684.00
2018-09-23T06:26:19.145Z,648.00
2018-09-23T06:27:18.945Z,632.00
2018-09-23T06:28:19.127Z,696.00
2018-09-23T06:29:19.376Z,852.00
2018-09-23T06:30:19.425Z,800.00
2018-09-23T06:31:19.607Z,692.00
2018-09-23T06:32:19.777Z,608.00
2018-09-23T06:33:19.956Z,484.00
2018-09-23T06:34:20.140Z,396.00
2018-09-23T06:35:20.303Z,416.00
2018-09-23T06:36:20.480Z,428.00
2018-09-23T06:37:20.662Z,500.00
2018-09-23T06:38:20.844Z,580.00
2018-09-23T06:39:21.022Z,672.00
2018-09-23T06:40:21.190Z,764.00
2018-09-23T06:41:21.381Z,896.00
2018-09-23T06:42:21.618Z,1036.00
2018-09-23T06:43:21.669Z,1048.00
2018-09-23T06:44:21.844Z,1088.00
2018-09-23T06:45:22.021Z,1104.00
2018-09-23T06:46:22.197Z,1268.00
2018-09-23T06:47:22.369Z,1252.00
2018-09-23T06:48:22.552Z,1260.00
2018-09-23T06:49:22.726Z,1188.00
2018-09-23T06:50:22.895Z,1140.00
2018-09-23T06:51:23.083Z,1112.00
2018-09-23T06:52:23.265Z,1112.00
2018-09-23T06:53:23.442Z,1132.00
2018-09-23T06:54:23.620Z,1160.00
2018-09-23T06:55:23.817Z,1140.00
2018-09-23T06:56:23.992Z,1084.00
2018-09-23T06:57:24.198Z,1048.00
2018-09-23T06:58:24.346Z,1004.00
2018-09-23T06:59:24.555Z,972.00
2018-09-23T07:00:24.740Z,1004.00
2018-09-23T07:01:24.991Z,1068.00
2018-09-23T07:02:25.055Z,1036.00
2018-09-23T07:03:25.244Z,1032.00
2018-09-23T07:04:25.492Z,1140.00
2018-09-23T07:05:25.604Z,1244.00
2018-09-23T07:06:25.789Z,1308.00
2018-09-23T07:07:25.989Z,1280.00
2018-09-23T07:08:26.190Z,1204.00
2018-09-23T07:09:26.351Z,1168.00
2018-09-23T07:10:26.552Z,1032.00
2018-09-23T07:11:26.709Z,856.00
2018-09-23T07:12:26.888Z,828.00
2018-09-23T07:13:27.086Z,812.00
2018-09-23T07:14:27.248Z,864.00
2018-09-23T07:15:27.434Z,888.00
2018-09-23T07:16:29.629Z,928.00
2018-09-23T07:17:28.925Z,932.00
2018-09-23T07:18:28.350Z,904.00
2018-09-23T07:19:28.341Z,904.00
2018-09-23T07:20:29.192Z,932.00
2018-09-23T07:21:30.068Z,1000.00
2018-09-23T07:22:30.577Z,1124.00
2018-09-23T07:23:29.404Z,1160.00
2018-09-23T07:24:30.342Z,1088.00
2018-09-23T07:25:30.299Z,1068.00
2018-09-23T07:26:29.277Z,1156.00
2018-09-23T07:27:29.951Z,1204.00
2018-09-23T07:28:30.163Z,1276.00
2018-09-23T07:29:30.998Z,1344.00
2018-09-23T07:30:31.613Z,1460.00
2018-09-23T07:31:30.033Z,1508.00
2018-09-23T07:32:30.225Z,1556.00
2018-09-23T07:33:30.405Z,1620.00
2018-09-23T07:34:30.582Z,1480.00
2018-09-23T07:35:30.760Z,1356.00
2018-09-23T07:36:30.930Z,1236.00
2018-09-23T07:37:31.113Z,1104.00
2018-09-23T07:38:31.350Z,956.00
2018-09-23T07:39:32.688Z,888.00
2018-09-23T07:40:32.872Z,964.00
2018-09-23T07:41:31.715Z,1280.00
2018-09-23T07:42:31.875Z,1528.00
2018-09-23T07:43:32.084Z,1752.00
2018-09-23T07:44:33.022Z,1984.00
2018-09-23T07:45:32.432Z,1896.00
2018-09-23T07:46:33.807Z,1652.00
2018-09-23T07:47:33.021Z,1516.00
2018-09-23T07:48:33.603Z,1492.00
2018-09-23T07:49:33.082Z,1608.00
2018-09-23T07:50:33.267Z,1780.00
2018-09-23T07:51:34.152Z,1900.00
2018-09-23T07:52:34.434Z,1848.00
2018-09-23T07:53:33.765Z,2076.00
2018-09-23T07:54:34.794Z,2512.00
2018-09-23T07:55:34.057Z,2760.00
2018-09-23T07:56:35.152Z,2976.00
2018-09-23T07:57:35.543Z,2904.00
2018-09-23T07:58:34.564Z,2524.00
2018-09-23T07:59:35.391Z,2156.00
2018-09-23T08:00:35.365Z,1868.00
2018-09-23T08:01:35.898Z,1792.00
2018-09-23T08:02:36.217Z,1948.00
2018-09-23T08:03:36.030Z,2188.00
2018-09-23T08:04:35.446Z,2428.00
2018-09-23T08:05:35.635Z,2504.00
2018-09-23T08:06:35.824Z,2440.00
2018-09-23T08:07:36.009Z,2496.00
2018-09-23T08:08:36.182Z,2624.00
2018-09-23T08:09:36.365Z,2948.00
2018-09-23T08:10:36.546Z,3052.00
2018-09-23T08:11:36.739Z,3004.00
2018-09-23T08:12:36.995Z,3016.00
2018-09-23T08:13:37.225Z,2880.00
2018-09-23T08:14:37.780Z,2508.00
2018-09-23T08:15:37.388Z,2396.00
2018-09-23T08:16:37.558Z,2464.00
2018-09-23T08:17:37.806Z,2348.00
2018-09-23T08:18:37.976Z,2180.00
2018-09-23T08:19:38.255Z,2104.00
2018-09-23T08:20:38.390Z,2024.00
2018-09-23T08:21:38.487Z,2040.00
2018-09-23T08:22:39.716Z,2160.00
2018-09-23T08:23:40.324Z,2240.00
2018-09-23T08:24:40.126Z,2092.00
2018-09-23T08:25:39.054Z,1936.00
2018-09-23T08:26:39.319Z,1780.00
2018-09-23T08:27:39.396Z,1644.00
2018-09-23T08:28:39.583Z,1628.00
2018-09-23T08:29:39.774Z,1732.00
2018-09-23T08:30:39.947Z,1744.00
2018-09-23T08:31:40.139Z,1760.00
2018-09-23T08:32:40.308Z,1796.00
2018-09-23T08:33:40.487Z,1864.00
2018-09-23T08:34:40.664Z,1940.00
2018-09-23T08:35:40.844Z,1920.00
2018-09-23T08:36:41.019Z,1968.00
2018-09-23T08:37:41.194Z,2024.00
2018-09-23T08:38:41.368Z,2040.00
2018-09-23T08:39:41.599Z,1972.00
2018-09-23T08:40:41.731Z,1904.00
2018-09-23T08:41:41.784Z,2088.00
2018-09-23T08:42:41.987Z,2336.00
2018-09-23T08:43:42.133Z,2372.00
2018-09-23T08:44:43.465Z,2272.00
2018-09-23T08:45:42.429Z,2268.00
2018-09-23T08:46:42.893Z,2452.00
2018-09-23T08:47:42.884Z,2836.00
2018-09-23T08:48:43.181Z,2896.00
2018-09-23T08:49:43.161Z,2724.00
2018-09-23T08:50:43.199Z,2724.00
2018-09-23T08:51:43.695Z,2704.00
2018-09-23T08:52:43.539Z,2508.00
2018-09-23T08:53:43.716Z,2212.00
2018-09-23T08:54:43.886Z,2248.00
2018-09-23T08:55:44.062Z,2640.00
2018-09-23T08:56:44.237Z,2696.00
2018-09-23T08:57:44.456Z,2520.00
2018-09-23T08:58:44.603Z,2232.00
2018-09-23T08:59:44.827Z,2084.00
2018-09-23T09:00:45.003Z,2132.00
2018-09-23T09:01:45.182Z,2244.00
2018-09-23T09:02:45.395Z,2180.00
2018-09-23T09:03:45.634Z,2180.00
2018-09-23T09:04:45.769Z,2356.00
2018-09-23T09:05:45.949Z,2364.00
2018-09-23T09:06:46.285Z,2312.00
2018-09-23T09:07:46.235Z,2460.00
2018-09-23T09:08:46.413Z,2480.00
2018-09-23T09:09:46.584Z,2408.00
2018-09-23T09:10:46.763Z,2504.00
2018-09-23T09:11:46.955Z,2432.00
2018-09-23T09:12:47.125Z,2376.00
2018-09-23T09:13:47.311Z,2460.00
2018-09-23T09:14:47.484Z,2552.00
2018-09-23T09:15:47.662Z,2684.00
2018-09-23T09:16:47.849Z,2772.00
2018-09-23T09:17:48.075Z,2912.00
2018-09-23T09:18:48.291Z,3084.00
2018-09-23T09:19:48.369Z,3084.00
2018-09-23T09:20:48.563Z,2884.00
2018-09-23T09:21:48.720Z,2820.00
2018-09-23T09:22:48.903Z,2704.00
2018-09-23T09:23:49.104Z,2556.00
2018-09-23T09:24:49.285Z,2504.00
2018-09-23T09:25:49.474Z,2568.00
2018-09-23T09:26:49.845Z,2596.00
2018-09-23T09:27:50.333Z,2528.00
2018-09-23T09:28:51.508Z,2664.00
2018-09-23T09:29:50.457Z,2480.00
2018-09-23T09:30:50.358Z,2120.00
2018-09-23T09:31:50.537Z,1968.00
2018-09-23T09:32:50.728Z,2208.00
2018-09-23T09:33:50.910Z,2336.00
2018-09-23T09:34:51.087Z,2232.00
2018-09-23T09:35:51.256Z,2276.00
2018-09-23T09:36:51.444Z,2312.00
2018-09-23T09:37:51.609Z,2400.00
2018-09-23T09:38:51.780Z,2564.00
2018-09-23T09:39:52.085Z,2564.00
2018-09-23T09:40:52.690Z,2324.00
2018-09-23T09:41:52.320Z,2008.00
2018-09-23T09:42:52.388Z,1936.00
2018-09-23T09:43:52.607Z,1924.00
2018-09-23T09:44:52.740Z,2012.00
2018-09-23T09:45:52.929Z,2172.00
2018-09-23T09:46:53.104Z,2252.00
2018-09-23T09:47:53.281Z,2340.00
2018-09-23T09:48:53.560Z,2240.00
2018-09-23T09:49:53.786Z,2048.00
2018-09-23T09:50:54.057Z,1908.00
2018-09-23T09:51:54.262Z,1952.00
2018-09-23T09:52:55.137Z,2076.00
2018-09-23T09:53:55.353Z,2084.00
2018-09-23T09:54:56.341Z,1968.00
2018-09-23T09:55:56.080Z,1888.00
2018-09-23T09:56:54.756Z,1976.00
2018-09-23T09:57:56.670Z,2144.00
2018-09-23T09:58:56.879Z,2292.00
2018-09-23T09:59:56.473Z,2496.00
2018-09-23T10:00:55.380Z,2708.00
2018-09-23T10:01:55.576Z,2856.00
2018-09-23T10:02:55.800Z,2892.00
2018-09-23T10:03:55.998Z,3000.00
2018-09-23T10:04:55.957Z,3148.00
2018-09-23T10:05:56.154Z,3220.00
2018-09-23T10:06:56.321Z,3208.00
2018-09-23T10:07:56.492Z,3044.00
2018-09-23T10:08:56.782Z,2936.00
2018-09-23T10:09:56.912Z,2812.00
2018-09-23T10:10:56.956Z,2664.00
2018-09-23T10:11:57.166Z,2420.00
2018-09-23T10:12:57.359Z,2036.00
2018-09-23T10:13:57.554Z,1804.00
2018-09-23T10:14:57.737Z,1824.00
2018-09-23T10:15:58.030Z,2088.00
2018-09-23T10:16:58.245Z,2336.00
2018-09-23T10:17:58.503Z,2384.00
2018-09-23T10:18:58.449Z,2616.00
2018-09-23T10:19:58.662Z,3188.00
2018-09-23T10:20:58.997Z,3328.00
2018-09-23T10:21:58.969Z,3056.00
2018-09-23T10:22:59.059Z,2628.00
2018-09-23T10:23:59.304Z,2128.00
2018-09-23T10:24:59.329Z,1800.00
2018-09-23T10:25:59.519Z,1724.00
2018-09-23T10:26:59.690Z,2012.00
2018-09-23T10:27:59.912Z,2524.00
2018-09-23T10:29:00.076Z,3008.00
2018-09-23T10:30:00.251Z,3336.00
2018-09-23T10:31:00.479Z,3660.00
2018-09-23T10:32:00.587Z,3816.00
2018-09-23T10:33:00.767Z,3932.00
2018-09-23T10:34:00.933Z,3964.00
2018-09-23T10:35:01.111Z,3708.00
2018-09-23T10:36:01.294Z,3472.00
2018-09-23T10:37:01.459Z,3312.00
2018-09-23T10:38:01.632Z,3124.00
2018-09-23T10:39:01.818Z,2992.00
2018-09-23T10:40:01.996Z,2896.00
2018-09-23T10:41:02.170Z,2924.00
2018-09-23T10:42:02.342Z,3008.00
2018-09-23T10:43:02.525Z,2796.00
2018-09-23T10:44:02.709Z,2308.00
2018-09-23T10:45:02.889Z,1984.00
2018-09-23T10:46:03.066Z,2580.00
2018-09-23T10:47:03.247Z,4128.00
2018-09-23T10:48:03.428Z,4636.00
2018-09-23T10:49:03.600Z,4380.00
2018-09-23T10:50:03.780Z,4572.00
2018-09-23T10:51:03.959Z,4488.00
2018-09-23T10:52:04.159Z,4332.00
2018-09-23T10:53:04.339Z,3452.00
2018-09-23T10:54:04.517Z,3092.00
2018-09-23T10:55:04.694Z,2964.00
2018-09-23T10:56:04.869Z,2604.00
2018-09-23T10:57:05.157Z,2364.00
2018-09-23T10:58:05.172Z,2516.00
2018-09-23T10:59:05.355Z,2792.00
2018-09-23T11:00:05.528Z,2404.00
2018-09-23T11:01:05.710Z,2124.00
2018-09-23T11:02:05.899Z,2144.00
2018-09-23T11:03:06.064Z,2164.00
2018-09-23T11:04:06.261Z,1928.00
2018-09-23T11:05:06.414Z,1844.00
2018-09-23T11:06:06.585Z,1860.00
2018-09-23T11:07:06.761Z,2120.00
2018-09-23T11:08:06.953Z,2372.00
2018-09-23T11:09:07.127Z,2556.00
2018-09-23T11:10:07.362Z,2812.00
2018-09-23T11:11:07.483Z,3480.00
2018-09-23T11:12:07.605Z,3984.00
2018-09-23T11:13:07.793Z,3932.00
2018-09-23T11:14:07.973Z,3852.00
2018-09-23T11:15:08.213Z,3364.00
2018-09-23T11:16:13.470Z,3224.00
2018-09-23T11:17:08.497Z,3384.00
2018-09-23T11:18:09.660Z,3300.00
2018-09-23T11:19:08.860Z,2876.00
2018-09-23T11:20:09.009Z,2456.00
2018-09-23T11:21:09.187Z,2240.00
2018-09-23T11:22:09.360Z,1888.00
2018-09-23T11:23:09.955Z,1676.00
2018-09-23T11:24:10.200Z,1620.00
2018-09-23T11:25:09.877Z,1684.00
2018-09-23T11:26:10.056Z,1956.00
2018-09-23T11:27:10.228Z,2424.00
2018-09-23T11:28:10.414Z,2624.00
2018-09-23T11:29:10.589Z,2468.00
2018-09-23T11:30:10.788Z,1864.00
2018-09-23T11:31:10.973Z,1332.00
2018-09-23T11:32:11.147Z,1156.00
2018-09-23T11:33:11.447Z,972.00
2018-09-23T11:34:11.459Z,920.00
2018-09-23T11:35:11.636Z,932.00
2018-09-23T11:36:14.892Z,1100.00
2018-09-23T11:37:13.821Z,1260.00
2018-09-23T11:38:12.741Z,1368.00
2018-09-23T11:39:13.968Z,1492.00
2018-09-23T11:40:13.667Z,1956.00
2018-09-23T11:41:14.221Z,2708.00
2018-09-23T11:42:13.451Z,2864.00
2018-09-23T11:43:14.125Z,2696.00
2018-09-23T11:44:15.007Z,2444.00
2018-09-23T11:45:15.214Z,2068.00
2018-09-23T11:46:14.836Z,1704.00
2018-09-23T11:47:15.954Z,1360.00
2018-09-23T11:48:14.283Z,1448.00
2018-09-23T11:49:15.666Z,1660.00
2018-09-23T11:50:14.900Z,1964.00
2018-09-23T11:51:16.038Z,2196.00
2018-09-23T11:52:16.805Z,2024.00
2018-09-23T11:53:15.169Z,1824.00
2018-09-23T11:54:15.201Z,1660.00
2018-09-23T11:55:15.950Z,1712.00
2018-09-23T11:56:17.480Z,1652.00
2018-09-23T11:57:15.651Z,1504.00
2018-09-23T11:58:16.743Z,1344.00
2018-09-23T11:59:16.857Z,1080.00
2018-09-23T12:00:17.833Z,968.00
2018-09-23T12:01:18.412Z,1024.00
2018-09-23T12:02:16.681Z,1120.00
2018-09-23T12:03:17.016Z,1300.00
2018-09-23T12:04:18.728Z,1576.00
2018-09-23T12:05:17.099Z,1768.00
2018-09-23T12:06:17.602Z,1916.00
2018-09-23T12:07:17.453Z,2372.00
2018-09-23T12:08:18.559Z,2564.00
2018-09-23T12:09:18.748Z,2708.00
2018-09-23T12:10:18.639Z,2628.00
2018-09-23T12:11:18.254Z,2100.00
2018-09-23T12:12:19.077Z,1700.00
2018-09-23T12:13:19.107Z,1784.00
2018-09-23T12:14:18.755Z,1940.00
2018-09-23T12:15:19.545Z,2240.00
2018-09-23T12:16:18.949Z,2696.00
2018-09-23T12:17:20.644Z,3124.00
2018-09-23T12:18:19.176Z,3300.00
2018-09-23T12:19:20.191Z,3628.00
2018-09-23T12:20:20.723Z,3756.00
2018-09-23T12:21:20.045Z,2840.00
2018-09-23T12:22:20.515Z,1968.00
2018-09-23T12:23:20.514Z,1468.00
2018-09-23T12:24:19.558Z,1588.00
2018-09-23T12:25:19.750Z,1856.00
2018-09-23T12:26:19.918Z,2268.00
2018-09-23T12:27:20.088Z,2228.00
2018-09-23T12:28:20.268Z,1972.00
2018-09-23T12:29:20.456Z,2032.00
2018-09-23T12:30:20.808Z,2340.00
2018-09-23T12:31:20.809Z,2288.00
2018-09-23T12:32:21.048Z,1956.00
2018-09-23T12:33:21.551Z,2084.00
2018-09-23T12:34:21.707Z,2360.00
2018-09-23T12:35:21.518Z,2108.00
2018-09-23T12:36:21.578Z,1608.00
2018-09-23T12:37:21.773Z,1504.00
2018-09-23T12:38:22.717Z,1484.00
2018-09-23T12:39:22.230Z,1516.00